createdAt,value
2019-04-29T00:01:12.457Z,10.90
2019-04-29T00:03:40.929Z,10.37
2019-04-29T00:06:09.358Z,11.17
2019-04-29T00:08:37.847Z,12.03
2019-04-29T00:11:06.333Z,11.17
2019-04-29T00:13:34.785Z,11.80
2019-04-29T00:16:13.904Z,11.87
2019-04-29T00:18:49.863Z,11.50
2019-04-29T00:21:18.636Z,11.80
2019-04-29T00:23:47.237Z,10.97
2019-04-29T00:26:15.685Z,11.63
2019-04-29T00:28:44.107Z,11.57
2019-04-29T00:31:12.647Z,10.87
2019-04-29T00:33:41.255Z,11.90
2019-04-29T00:36:09.658Z,11.90
2019-04-29T00:38:39.804Z,11.50
2019-04-29T00:41:13.307Z,12.23
2019-04-29T00:43:52.470Z,12.57
2019-04-29T00:46:21.080Z,12.77
2019-04-29T00:48:49.567Z,13.20
2019-04-29T00:51:18.104Z,12.07
2019-04-29T00:53:47.629Z,13.67
2019-04-29T00:56:16.563Z,14.77
2019-04-29T00:58:45.724Z,13.07
2019-04-29T01:01:15.866Z,13.70
2019-04-29T01:03:44.322Z,13.33
2019-04-29T01:06:13.115Z,14.63
2019-04-29T01:08:41.679Z,13.97
2019-04-29T01:11:10.113Z,14.10
2019-04-29T01:13:38.967Z,14.83
2019-04-29T01:16:07.835Z,14.33
2019-04-29T01:18:36.375Z,14.87
2019-04-29T01:21:04.866Z,13.00
2019-04-29T01:23:33.339Z,14.73
2019-04-29T01:26:03.492Z,14.30
2019-04-29T01:28:33.745Z,14.90
2019-04-29T01:31:05.189Z,14.30
2019-04-29T01:33:33.698Z,14.77
2019-04-29T01:36:12.521Z,14.43
2019-04-29T01:38:41.021Z,14.80
2019-04-29T01:41:13.673Z,13.13
2019-04-29T01:44:01.582Z,15.47
2019-04-29T01:46:30.495Z,13.77
2019-04-29T01:48:59.159Z,14.70
2019-04-29T01:51:27.614Z,15.33
2019-04-29T01:53:56.042Z,14.90
2019-04-29T01:56:24.808Z,14.60
2019-04-29T01:58:53.264Z,16.00
2019-04-29T02:01:21.847Z,14.60
2019-04-29T02:03:50.328Z,15.80
2019-04-29T02:06:18.861Z,15.57
2019-04-29T02:08:48.696Z,16.23
2019-04-29T02:11:17.159Z,16.77
2019-04-29T02:13:45.592Z,15.87
2019-04-29T02:16:14.043Z,16.37
2019-04-29T02:18:42.473Z,15.70
2019-04-29T02:21:10.899Z,16.40
2019-04-29T02:23:53.078Z,16.23
2019-04-29T02:26:21.517Z,17.07
2019-04-29T02:28:49.964Z,16.80
2019-04-29T02:31:36.384Z,18.10
2019-04-29T02:34:05.070Z,17.10
2019-04-29T02:36:33.560Z,16.53
2019-04-29T02:39:12.681Z,17.17
2019-04-29T02:41:48.559Z,16.97
2019-04-29T02:44:17.020Z,16.83
2019-04-29T02:46:45.468Z,18.27
2019-04-29T02:49:13.914Z,17.73
2019-04-29T02:51:50.136Z,17.87
2019-04-29T02:54:18.549Z,17.80
2019-04-29T02:56:51.319Z,18.30
2019-04-29T02:59:30.019Z,18.27
2019-04-29T03:02:16.630Z,18.60
2019-04-29T03:05:03.635Z,15.87
2019-04-29T03:07:32.116Z,17.37
2019-04-29T03:10:01.145Z,18.20
2019-04-29T03:12:30.731Z,18.87
2019-04-29T03:14:59.800Z,18.00
2019-04-29T03:17:28.985Z,18.57
2019-04-29T03:20:16.213Z,19.57
2019-04-29T03:22:48.498Z,18.83
2019-04-29T03:25:24.004Z,18.10
2019-04-29T03:27:52.437Z,18.57
2019-04-29T03:30:20.918Z,19.47
2019-04-29T03:32:49.392Z,18.67
2019-04-29T03:35:17.874Z,18.77
2019-04-29T03:37:46.453Z,18.60
2019-04-29T03:40:14.937Z,18.63
2019-04-29T03:42:43.393Z,19.07
2019-04-29T03:45:11.898Z,19.53
2019-04-29T03:47:40.376Z,18.87
2019-04-29T03:50:08.878Z,18.17
2019-04-29T03:52:37.336Z,18.90
2019-04-29T03:55:07.028Z,19.80
2019-04-29T03:57:36.611Z,19.23
2019-04-29T04:00:18.775Z,19.80
2019-04-29T04:02:51.686Z,18.67
2019-04-29T04:05:21.834Z,20.00
2019-04-29T04:07:51.954Z,19.63
2019-04-29T04:10:20.362Z,19.97
2019-04-29T04:12:48.842Z,19.07
2019-04-29T04:15:17.334Z,19.50
2019-04-29T04:17:50.152Z,19.87
2019-04-29T04:20:18.682Z,17.93
2019-04-29T04:22:48.000Z,18.10
2019-04-29T04:25:18.556Z,18.87
2019-04-29T04:27:47.917Z,17.63
2019-04-29T04:30:18.060Z,19.03
2019-04-29T04:32:46.596Z,18.07
2019-04-29T04:35:16.768Z,18.37
2019-04-29T04:37:45.219Z,17.00
2019-04-29T04:40:16.065Z,18.50
2019-04-29T04:42:44.903Z,18.40
2019-04-29T04:45:13.968Z,17.93
2019-04-29T04:47:42.417Z,19.00
2019-04-29T04:50:11.311Z,16.97
2019-04-29T04:52:39.770Z,18.60
2019-04-29T04:55:08.674Z,16.90
2019-04-29T04:57:37.133Z,17.37
2019-04-29T05:00:09.264Z,16.10
2019-04-29T05:02:37.983Z,16.97
2019-04-29T05:05:06.531Z,17.63
2019-04-29T05:07:34.996Z,16.80
2019-04-29T05:10:03.715Z,16.87
2019-04-29T05:12:32.243Z,16.93
2019-04-29T05:15:00.642Z,16.40
2019-04-29T05:17:29.128Z,16.50
2019-04-29T05:19:57.555Z,15.30
2019-04-29T05:22:26.087Z,15.57
2019-04-29T05:24:54.531Z,15.23
2019-04-29T05:27:23.060Z,14.23
2019-04-29T05:29:51.514Z,15.17
2019-04-29T05:32:19.946Z,15.10
2019-04-29T05:34:50.062Z,15.40
2019-04-29T05:37:35.364Z,14.67
2019-04-29T05:40:05.993Z,13.03
2019-04-29T05:42:34.440Z,13.97
2019-04-29T05:45:04.541Z,14.30
2019-04-29T05:47:37.887Z,13.57
2019-04-29T05:50:24.410Z,13.90
2019-04-29T05:53:03.468Z,14.30
2019-04-29T05:55:32.760Z,12.83
2019-04-29T05:58:13.121Z,13.70
2019-04-29T06:00:44.222Z,13.40
2019-04-29T06:03:12.672Z,12.30
2019-04-29T06:05:41.180Z,12.27
2019-04-29T06:08:09.699Z,12.37
2019-04-29T06:10:38.151Z,11.67
2019-04-29T06:13:06.591Z,11.33
2019-04-29T06:15:35.162Z,10.57
2019-04-29T06:18:03.867Z,10.63
2019-04-29T06:20:32.271Z,9.83
2019-04-29T06:23:01.431Z,11.30
2019-04-29T06:25:29.918Z,10.37
2019-04-29T06:27:58.328Z,11.13
2019-04-29T06:30:26.789Z,10.40
2019-04-29T06:32:55.223Z,10.63
2019-04-29T06:35:24.171Z,10.37
2019-04-29T06:37:52.704Z,10.53
2019-04-29T06:40:21.175Z,9.80
2019-04-29T06:42:53.509Z,8.53
2019-04-29T06:45:19.873Z,8.80
2019-04-29T06:47:48.317Z,8.33
2019-04-29T06:50:17.105Z,9.50
2019-04-29T06:52:45.523Z,8.10
2019-04-29T06:55:14.523Z,7.87
2019-04-29T06:57:42.959Z,8.10
2019-04-29T07:00:11.549Z,7.97
2019-04-29T07:02:40.010Z,7.67
2019-04-29T07:05:08.628Z,7.53
2019-04-29T07:07:37.026Z,8.33
2019-04-29T07:10:06.515Z,7.87
2019-04-29T07:12:34.969Z,8.40
2019-04-29T07:15:07.702Z,7.87
2019-04-29T07:17:36.588Z,7.47
2019-04-29T07:20:05.905Z,7.87
2019-04-29T07:22:34.389Z,8.07
2019-04-29T07:25:02.945Z,8.30
2019-04-29T07:27:34.516Z,7.47
2019-04-29T07:30:06.040Z,8.53
2019-04-29T07:32:32.478Z,8.30
2019-04-29T07:35:01.037Z,8.00
2019-04-29T07:37:29.896Z,7.23
2019-04-29T07:40:03.570Z,7.57
2019-04-29T07:42:32.272Z,7.30
2019-04-29T07:45:17.645Z,7.10
2019-04-29T07:47:56.273Z,7.87
2019-04-29T07:50:18.021Z,7.93
2019-04-29T07:52:49.975Z,8.37
2019-04-29T07:55:16.697Z,7.47
2019-04-29T07:57:47.711Z,8.13
2019-04-29T08:00:16.255Z,8.23
2019-04-29T08:02:44.902Z,9.23
2019-04-29T08:05:13.995Z,8.47
2019-04-29T08:07:42.798Z,8.00
2019-04-29T08:10:23.437Z,9.07
2019-04-29T08:12:43.221Z,9.17
2019-04-29T08:15:12.410Z,9.57
2019-04-29T08:17:40.847Z,9.50
2019-04-29T08:20:09.468Z,9.23
2019-04-29T08:22:37.907Z,9.13
2019-04-29T08:25:07.538Z,9.53
2019-04-29T08:27:40.564Z,10.53
2019-04-29T08:30:11.345Z,9.77
2019-04-29T08:32:38.374Z,11.07
2019-04-29T08:35:07.550Z,10.20
2019-04-29T08:37:36.110Z,10.63
2019-04-29T08:40:15.865Z,11.30
2019-04-29T08:42:47.110Z,11.27
2019-04-29T08:45:20.195Z,11.37
2019-04-29T08:47:50.379Z,10.83
2019-04-29T08:50:18.926Z,11.27
2019-04-29T08:52:47.421Z,11.63
2019-04-29T08:55:19.183Z,11.63
2019-04-29T08:57:46.253Z,13.43
2019-04-29T09:00:17.040Z,11.97
2019-04-29T09:02:46.945Z,12.40
2019-04-29T09:05:16.542Z,13.37
2019-04-29T09:07:45.288Z,13.80
2019-04-29T09:10:14.475Z,13.07
2019-04-29T09:12:43.091Z,14.70
2019-04-29T09:15:13.155Z,15.17
2019-04-29T09:17:41.613Z,15.03
2019-04-29T09:20:11.303Z,15.90
2019-04-29T09:22:53.273Z,14.07
2019-04-29T09:25:29.140Z,15.27
2019-04-29T09:28:01.691Z,15.67
2019-04-29T09:30:30.340Z,16.80
2019-04-29T09:32:58.825Z,16.33
2019-04-29T09:35:28.842Z,16.53
2019-04-29T09:37:59.684Z,16.03
2019-04-29T09:40:29.845Z,16.77
2019-04-29T09:43:16.200Z,16.17
2019-04-29T09:45:46.398Z,17.07
2019-04-29T09:48:14.851Z,16.47
2019-04-29T09:50:43.331Z,18.17
2019-04-29T09:53:11.910Z,17.77
2019-04-29T09:55:41.322Z,17.07
2019-04-29T09:58:09.906Z,18.33
2019-04-29T10:00:58.355Z,17.30
2019-04-29T10:03:37.530Z,19.13
2019-04-29T10:06:12.462Z,19.57
2019-04-29T10:08:40.487Z,18.97
2019-04-29T10:11:09.321Z,19.07
2019-04-29T10:13:37.796Z,18.50
2019-04-29T10:16:13.919Z,18.83
2019-04-29T10:18:56.271Z,17.40
2019-04-29T10:21:24.803Z,17.77
2019-04-29T10:23:53.521Z,16.90
2019-04-29T10:26:22.040Z,16.67
2019-04-29T10:28:52.173Z,16.40
2019-04-29T10:31:21.340Z,16.40
2019-04-29T10:33:50.222Z,15.40
2019-04-29T10:36:20.595Z,16.33
2019-04-29T10:38:51.890Z,15.20
2019-04-29T10:41:25.576Z,15.00
2019-04-29T10:44:04.791Z,15.10
2019-04-29T10:46:47.437Z,15.13
2019-04-29T10:49:29.788Z,15.13
2019-04-29T10:52:03.000Z,14.60
2019-04-29T10:54:30.006Z,14.17
2019-04-29T10:56:58.473Z,15.37
2019-04-29T10:59:35.557Z,15.00
2019-04-29T11:02:15.936Z,13.40
2019-04-29T11:04:46.388Z,14.60
2019-04-29T11:07:26.992Z,14.33
2019-04-29T11:10:03.529Z,14.23
2019-04-29T11:12:32.309Z,14.20
2019-04-29T11:15:01.717Z,16.13
2019-04-29T11:17:30.585Z,14.93
2019-04-29T11:19:59.205Z,14.27
2019-04-29T11:22:29.415Z,14.40
2019-04-29T11:25:05.423Z,14.83
2019-04-29T11:27:51.661Z,15.20
2019-04-29T11:30:21.901Z,15.37
2019-04-29T11:32:54.753Z,15.63
2019-04-29T11:35:41.350Z,14.63
2019-04-29T11:38:11.483Z,16.40
2019-04-29T11:40:43.726Z,15.93
2019-04-29T11:43:15.464Z,15.93
2019-04-29T11:45:42.992Z,15.27
2019-04-29T11:48:11.540Z,15.87
2019-04-29T11:50:45.117Z,16.60
2019-04-29T11:53:15.578Z,15.17
2019-04-29T11:55:46.398Z,14.47
2019-04-29T11:58:21.759Z,15.67
2019-04-29T12:01:03.867Z,14.70
2019-04-29T12:03:44.959Z,14.73
2019-04-29T12:06:20.667Z,14.97
2019-04-29T12:08:48.100Z,14.17
2019-04-29T12:11:18.360Z,15.27
2019-04-29T12:14:03.132Z,14.13
2019-04-29T12:16:50.497Z,14.23
2019-04-29T12:19:26.080Z,13.97
2019-04-29T12:21:54.606Z,14.13
2019-04-29T12:24:23.057Z,13.83
2019-04-29T12:26:51.527Z,13.50
2019-04-29T12:29:20.106Z,13.50
2019-04-29T12:31:55.637Z,12.63
2019-04-29T12:34:37.680Z,13.03
2019-04-29T12:37:11.441Z,13.37
2019-04-29T12:39:44.741Z,12.57
2019-04-29T12:42:29.688Z,12.73
2019-04-29T12:44:59.848Z,12.70
2019-04-29T12:47:32.987Z,12.90
2019-04-29T12:50:01.453Z,13.37
2019-04-29T12:52:29.892Z,13.47
2019-04-29T12:58:00.539Z,12.07
2019-04-29T13:00:30.609Z,13.00
2019-04-29T13:03:01.869Z,13.63
2019-04-29T13:05:58.085Z,12.83
2019-04-29T13:08:20.416Z,13.50
2019-04-29T13:10:50.542Z,14.10
2019-04-29T13:13:20.042Z,13.80
2019-04-29T13:16:06.991Z,12.83
2019-04-29T13:18:37.113Z,13.97
2019-04-29T13:21:10.314Z,15.53
2019-04-29T13:23:46.986Z,14.53
2019-04-29T13:26:07.964Z,14.23
2019-04-29T13:28:47.054Z,15.83
2019-04-29T13:31:06.394Z,15.93
2019-04-29T13:33:34.843Z,16.03
2019-04-29T13:36:04.142Z,15.60
2019-04-29T13:38:32.740Z,14.60
2019-04-29T13:41:13.055Z,14.80
2019-04-29T13:43:35.367Z,13.17
2019-04-29T13:46:15.146Z,15.63
2019-04-29T13:48:55.999Z,15.80
2019-04-29T13:51:35.089Z,15.00
2019-04-29T13:53:55.418Z,16.30
2019-04-29T13:56:35.294Z,16.40
2019-04-29T13:58:57.631Z,15.80
2019-04-29T14:01:33.029Z,17.30
2019-04-29T14:04:02.010Z,17.13
2019-04-29T14:06:30.563Z,17.00
2019-04-29T14:09:00.116Z,16.20
2019-04-29T14:11:29.271Z,17.00
2019-04-29T14:13:57.730Z,17.83
2019-04-29T14:16:26.596Z,17.80
2019-04-29T14:18:55.150Z,18.47
2019-04-29T14:21:25.619Z,17.73
2019-04-29T14:23:53.828Z,17.07
2019-04-29T14:26:22.282Z,19.10
2019-04-29T14:28:50.736Z,17.10
2019-04-29T14:31:22.788Z,19.03
2019-04-29T14:33:51.070Z,17.80
2019-04-29T14:36:19.976Z,18.63
2019-04-29T14:38:49.730Z,17.60
2019-04-29T14:41:19.211Z,18.73
2019-04-29T14:43:50.697Z,18.23
2019-04-29T14:46:33.278Z,19.57
2019-04-29T14:49:04.637Z,19.50
2019-04-29T14:51:38.224Z,18.03
2019-04-29T14:54:07.514Z,18.23
2019-04-29T14:56:36.178Z,19.07
2019-04-29T14:59:07.394Z,19.33
2019-04-29T15:01:36.649Z,19.87
2019-04-29T15:04:17.752Z,18.80
2019-04-29T15:06:37.702Z,19.50
2019-04-29T15:09:16.831Z,19.00
2019-04-29T15:11:47.175Z,19.77
2019-04-29T15:14:26.667Z,19.90
2019-04-29T15:17:03.018Z,20.03
2019-04-29T15:19:58.233Z,20.77
2019-04-29T15:22:28.792Z,20.00
2019-04-29T15:24:57.276Z,20.37
2019-04-29T15:27:25.734Z,21.03
2019-04-29T15:29:54.163Z,21.37
2019-04-29T15:32:23.829Z,21.03
2019-04-29T15:34:52.453Z,20.77
2019-04-29T15:37:20.932Z,20.03
2019-04-29T15:39:49.376Z,21.43
2019-04-29T15:42:17.869Z,21.83
2019-04-29T15:44:46.449Z,20.63
2019-04-29T15:47:15.044Z,21.30
2019-04-29T15:49:43.502Z,23.57
2019-04-29T15:52:11.954Z,21.53
2019-04-29T15:54:40.430Z,22.17
2019-04-29T15:57:14.885Z,22.80
2019-04-29T15:59:48.481Z,22.30
2019-04-29T16:02:09.911Z,21.80
2019-04-29T16:04:40.109Z,23.10
2019-04-29T16:07:19.254Z,22.27
2019-04-29T16:10:05.421Z,23.70
2019-04-29T16:12:38.218Z,23.00
2019-04-29T16:15:07.362Z,23.57
2019-04-29T16:17:37.922Z,23.47
2019-04-29T16:20:07.326Z,23.80
2019-04-29T16:22:39.066Z,24.30
2019-04-29T16:25:10.848Z,22.33
2019-04-29T16:27:40.998Z,23.20
2019-04-29T16:30:07.699Z,23.13
2019-04-29T16:32:40.220Z,25.17
2019-04-29T16:35:10.269Z,25.17
2019-04-29T16:37:38.694Z,23.03
2019-04-29T16:40:08.897Z,25.73
2019-04-29T16:42:41.928Z,24.73
2019-04-29T16:45:12.233Z,24.37
2019-04-29T16:47:47.559Z,24.73
2019-04-29T16:50:13.112Z,23.93
2019-04-29T16:52:44.515Z,25.27
2019-04-29T16:55:13.018Z,24.30
2019-04-29T16:57:41.629Z,24.63
2019-04-29T17:02:41.035Z,23.90
2019-04-29T17:05:10.944Z,24.30
2019-04-29T17:07:39.466Z,24.33
2019-04-29T17:10:12.641Z,24.90
2019-04-29T17:12:42.751Z,26.57
2019-04-29T17:15:24.121Z,24.60
2019-04-29T17:17:41.938Z,25.67
2019-04-29T17:20:11.139Z,24.33
2019-04-29T17:22:43.100Z,25.90
2019-04-29T17:25:10.623Z,25.70
2019-04-29T17:27:49.696Z,24.57
2019-04-29T17:30:19.761Z,24.43
2019-04-29T17:32:53.546Z,25.97
2019-04-29T17:35:15.989Z,23.67
2019-04-29T17:37:52.639Z,24.93
2019-04-29T17:40:21.825Z,25.73
2019-04-29T17:42:54.747Z,26.33
2019-04-29T17:45:30.799Z,26.33
2019-04-29T17:48:12.830Z,26.00
2019-04-29T17:50:54.762Z,25.87
2019-04-29T17:53:25.424Z,26.83
2019-04-29T17:55:58.343Z,26.77
2019-04-29T17:58:31.251Z,25.87
2019-04-29T18:01:17.894Z,25.97
2019-04-29T18:03:51.787Z,26.00
2019-04-29T18:06:26.502Z,26.70
2019-04-29T18:09:05.291Z,25.50
2019-04-29T18:11:33.742Z,25.67
2019-04-29T18:14:02.148Z,25.93
2019-04-29T18:16:32.258Z,27.43
2019-04-29T18:19:17.573Z,27.40
2019-04-29T18:22:07.337Z,26.77
2019-04-29T18:24:49.903Z,26.10
2019-04-29T18:27:20.244Z,24.93
2019-04-29T18:29:48.854Z,25.83
2019-04-29T18:32:17.324Z,26.03
2019-04-29T18:34:45.837Z,26.87
2019-04-29T18:37:15.252Z,25.87
2019-04-29T18:39:44.475Z,26.20
2019-04-29T18:42:12.912Z,26.13
2019-04-29T18:44:54.135Z,25.87
2019-04-29T18:47:20.634Z,26.23
2019-04-29T18:49:42.751Z,28.43
2019-04-29T18:52:11.525Z,26.17
2019-04-29T18:54:40.412Z,25.90
2019-04-29T18:57:09.021Z,25.97
2019-04-29T18:59:37.476Z,25.70
2019-04-29T19:02:09.303Z,24.77
2019-04-29T19:04:40.634Z,25.73
2019-04-29T19:07:09.446Z,25.70
2019-04-29T19:09:39.693Z,25.73
2019-04-29T19:12:08.344Z,26.93
2019-04-29T19:14:36.872Z,26.83
2019-04-29T19:17:05.547Z,26.93
2019-04-29T19:19:37.837Z,26.50
2019-04-29T19:22:07.683Z,26.60
2019-04-29T19:24:36.537Z,25.97
2019-04-29T19:27:09.102Z,27.77
2019-04-29T19:29:38.800Z,27.50
2019-04-29T19:32:05.473Z,26.77
2019-04-29T19:34:42.295Z,27.00
2019-04-29T19:37:05.166Z,25.47
2019-04-29T19:39:34.922Z,24.43
2019-04-29T19:42:05.545Z,24.43
2019-04-29T19:44:36.636Z,23.53
2019-04-29T19:47:04.167Z,22.10
2019-04-29T19:49:32.655Z,21.33
2019-04-29T19:52:01.095Z,22.47
2019-04-29T19:54:29.662Z,20.13
2019-04-29T19:57:03.255Z,21.60
2019-04-29T19:59:29.573Z,20.40
2019-04-29T20:02:05.307Z,18.83
2019-04-29T20:04:39.537Z,18.90
2019-04-29T20:07:10.319Z,18.73
2019-04-29T20:09:39.897Z,18.70
2019-04-29T20:12:12.752Z,19.50
2019-04-29T20:14:39.603Z,20.20
2019-04-29T20:17:22.781Z,20.47
2019-04-29T20:20:02.387Z,20.33
2019-04-29T20:22:31.850Z,21.50
2019-04-29T20:25:00.578Z,20.13
2019-04-29T20:27:30.992Z,20.87
2019-04-29T20:29:59.504Z,20.63
2019-04-29T20:32:40.051Z,20.40
2019-04-29T20:35:09.507Z,21.93
2019-04-29T20:37:38.511Z,20.97
2019-04-29T20:40:08.765Z,23.07
2019-04-29T20:42:40.382Z,22.10
2019-04-29T20:45:08.728Z,21.87
2019-04-29T20:47:40.603Z,21.53
2019-04-29T20:50:14.009Z,20.60
2019-04-29T20:52:42.006Z,20.00
2019-04-29T20:55:10.803Z,18.83
2019-04-29T20:57:39.759Z,16.90
2019-04-29T21:00:10.526Z,16.57
2019-04-29T21:02:40.625Z,15.63
2019-04-29T21:05:14.125Z,15.07
2019-04-29T21:07:39.913Z,13.37
2019-04-29T21:10:09.188Z,12.50
2019-04-29T21:12:55.841Z,11.50
2019-04-29T21:15:27.339Z,11.37
2019-04-29T21:17:58.552Z,11.50
2019-04-29T21:20:26.413Z,9.87
2019-04-29T21:22:59.279Z,10.37
2019-04-29T21:25:29.510Z,9.77
2019-04-29T21:27:58.232Z,9.00
2019-04-29T21:30:34.976Z,8.87
2019-04-29T21:32:55.894Z,9.27
2019-04-29T21:35:27.018Z,10.23
2019-04-29T21:38:17.756Z,10.30
2019-04-29T21:40:51.286Z,10.70
2019-04-29T21:43:21.459Z,9.73
2019-04-29T21:45:50.083Z,10.07
2019-04-29T21:48:18.513Z,10.07
2019-04-29T21:50:46.951Z,10.73
2019-04-29T21:53:18.097Z,10.10
2019-04-29T21:55:46.522Z,8.63
2019-04-29T21:58:15.130Z,8.93
2019-04-29T22:00:45.509Z,8.60
2019-04-29T22:03:15.393Z,8.57
2019-04-29T22:05:45.061Z,7.60
2019-04-29T22:08:16.144Z,8.13
2019-04-29T22:10:45.171Z,7.67
2019-04-29T22:13:14.973Z,7.97
2019-04-29T22:15:45.499Z,7.13
2019-04-29T22:18:17.828Z,7.97
2019-04-29T22:23:13.172Z,7.20
2019-04-29T22:25:41.180Z,6.90
2019-04-29T22:28:10.809Z,6.67
2019-04-29T22:30:40.431Z,7.30
2019-04-29T22:33:08.925Z,6.67
2019-04-29T22:35:40.720Z,6.23
2019-04-29T22:38:12.048Z,6.20
2019-04-29T22:40:41.310Z,6.60
2019-04-29T22:43:14.378Z,7.00
2019-04-29T22:45:42.433Z,6.70
2019-04-29T22:48:16.864Z,6.67
2019-04-29T22:50:41.087Z,6.13
2019-04-29T22:53:09.520Z,6.90
2019-04-29T22:55:39.217Z,6.80
2019-04-29T22:58:09.696Z,6.20
2019-04-29T23:00:38.248Z,6.70
2019-04-29T23:03:06.695Z,5.80
2019-04-29T23:05:35.945Z,6.60
2019-04-29T23:08:05.384Z,6.07
2019-04-29T23:10:35.523Z,6.63
2019-04-29T23:13:06.268Z,5.90
2019-04-29T23:15:35.707Z,5.70
2019-04-29T23:18:06.489Z,5.70
2019-04-29T23:20:42.522Z,6.27
2019-04-29T23:23:15.640Z,6.20
2019-04-29T23:25:46.081Z,6.53
2019-04-29T23:28:14.553Z,6.57
2019-04-29T23:30:42.952Z,6.00
2019-04-29T23:33:11.457Z,5.93
2019-04-29T23:35:41.029Z,6.70
2019-04-29T23:38:09.695Z,6.63
2019-04-29T23:40:38.169Z,6.17
2019-04-29T23:43:06.774Z,6.33
2019-04-29T23:45:35.280Z,7.33
2019-04-29T23:48:05.521Z,6.07
2019-04-29T23:50:35.939Z,6.37
2019-04-29T23:53:05.789Z,6.60
2019-04-29T23:55:35.551Z,6.47
2019-04-29T23:58:12.100Z,6.47
